createdAt,value
2018-06-08T00:02:08.597Z,15.23
2018-06-08T00:04:36.766Z,15.40
2018-06-08T00:07:04.939Z,14.90
2018-06-08T00:09:33.096Z,14.27
2018-06-08T00:12:01.226Z,14.60
2018-06-08T00:14:29.385Z,16.00
2018-06-08T00:16:57.493Z,15.00
2018-06-08T00:19:25.650Z,15.77
2018-06-08T00:21:53.802Z,16.20
2018-06-08T00:24:22.003Z,16.17
2018-06-08T00:26:50.117Z,15.53
2018-06-08T00:29:18.285Z,17.40
2018-06-08T00:31:46.412Z,17.57
2018-06-08T00:34:14.560Z,17.30
2018-06-08T00:36:42.706Z,18.17
2018-06-08T00:39:11.261Z,16.83
2018-06-08T00:41:39.415Z,17.20
2018-06-08T00:44:07.578Z,17.37
2018-06-08T00:46:35.681Z,18.63
2018-06-08T00:49:03.793Z,18.73
2018-06-08T00:51:31.961Z,18.37
2018-06-08T00:54:00.105Z,18.77
2018-06-08T00:56:33.769Z,18.50
2018-06-08T00:59:01.877Z,17.83
2018-06-08T01:01:30.038Z,17.90
2018-06-08T01:03:58.161Z,18.33
2018-06-08T01:06:26.286Z,18.23
2018-06-08T01:08:54.425Z,19.57
2018-06-08T01:11:22.609Z,19.50
2018-06-08T01:13:50.732Z,20.67
2018-06-08T01:16:18.852Z,18.77
2018-06-08T01:18:46.970Z,18.83
2018-06-08T01:21:15.101Z,18.83
2018-06-08T01:23:43.234Z,19.83
2018-06-08T01:26:11.366Z,20.10
2018-06-08T01:28:39.497Z,20.83
2018-06-08T01:31:07.659Z,21.63
2018-06-08T01:33:35.826Z,21.90
2018-06-08T01:36:03.953Z,22.70
2018-06-08T01:38:32.093Z,22.17
2018-06-08T01:41:00.257Z,24.27
2018-06-08T01:43:28.377Z,24.53
2018-06-08T01:45:56.546Z,24.30
2018-06-08T01:48:24.691Z,24.17
2018-06-08T01:50:52.805Z,24.93
2018-06-08T01:53:20.915Z,24.63
2018-06-08T01:55:49.036Z,24.07
2018-06-08T01:58:17.169Z,24.90
2018-06-08T02:00:45.290Z,26.07
2018-06-08T02:03:13.406Z,27.10
2018-06-08T02:05:41.535Z,25.80
2018-06-08T02:08:09.653Z,26.50
2018-06-08T02:10:37.809Z,28.07
2018-06-08T02:13:06.006Z,28.33
2018-06-08T02:15:34.232Z,28.03
2018-06-08T02:18:02.365Z,28.83
2018-06-08T02:20:30.490Z,30.17
2018-06-08T02:22:58.704Z,27.83
2018-06-08T02:25:26.828Z,29.97
2018-06-08T02:27:55.461Z,28.93
2018-06-08T02:30:23.599Z,28.63
2018-06-08T02:32:51.721Z,30.77
2018-06-08T02:35:19.838Z,29.03
2018-06-08T02:37:47.973Z,28.70
2018-06-08T02:40:16.098Z,30.33
2018-06-08T02:42:44.260Z,31.57
2018-06-08T02:45:12.422Z,30.67
2018-06-08T02:47:40.607Z,29.27
2018-06-08T02:50:08.750Z,30.50
2018-06-08T02:52:36.896Z,30.80
2018-06-08T02:55:05.030Z,30.23
2018-06-08T02:57:33.152Z,30.17
2018-06-08T03:00:01.298Z,31.23
2018-06-08T03:02:29.410Z,31.37
2018-06-08T03:04:57.577Z,31.57
2018-06-08T03:07:26.111Z,31.10
2018-06-08T03:09:54.238Z,31.03
2018-06-08T03:12:22.375Z,31.17
2018-06-08T03:14:50.502Z,31.73
2018-06-08T03:17:18.617Z,31.47
2018-06-08T03:19:46.774Z,32.43
2018-06-08T03:22:14.915Z,30.63
2018-06-08T03:24:43.038Z,32.73
2018-06-08T03:27:11.177Z,31.30
2018-06-08T03:29:39.299Z,32.83
2018-06-08T03:32:07.470Z,31.10
2018-06-08T03:34:35.599Z,32.33
2018-06-08T03:37:03.729Z,32.53
2018-06-08T03:39:31.904Z,31.87
2018-06-08T03:42:00.057Z,32.10
2018-06-08T03:44:28.182Z,32.00
2018-06-08T03:46:56.317Z,32.43
2018-06-08T03:49:24.437Z,34.43
2018-06-08T03:51:52.563Z,33.97
2018-06-08T03:54:20.678Z,34.07
2018-06-08T03:56:49.058Z,35.63
2018-06-08T03:59:17.561Z,34.40
2018-06-08T04:01:45.695Z,32.13
2018-06-08T04:04:13.814Z,32.90
2018-06-08T04:06:41.926Z,35.47
2018-06-08T04:09:10.057Z,34.10
2018-06-08T04:11:38.206Z,34.40
2018-06-08T04:14:06.316Z,35.00
2018-06-08T04:16:34.468Z,33.93
2018-06-08T04:19:02.606Z,32.97
2018-06-08T04:21:30.756Z,32.57
2018-06-08T04:23:58.945Z,33.23
2018-06-08T04:26:27.094Z,33.80
2018-06-08T04:28:55.250Z,33.83
2018-06-08T04:31:23.380Z,33.90
2018-06-08T04:33:51.513Z,34.30
2018-06-08T04:36:19.639Z,36.27
2018-06-08T04:38:47.815Z,42.20
2018-06-08T04:41:15.935Z,41.60
2018-06-08T04:43:44.045Z,39.57
2018-06-08T04:46:12.155Z,42.07
2018-06-08T04:48:40.314Z,42.93
2018-06-08T04:51:08.439Z,45.80
2018-06-08T04:53:36.598Z,44.63
2018-06-08T04:56:04.958Z,46.53
2018-06-08T04:58:33.190Z,45.77
2018-06-08T05:01:01.649Z,43.47
2018-06-08T05:03:29.856Z,44.07
2018-06-08T05:05:58.002Z,43.43
2018-06-08T05:08:26.168Z,41.93
2018-06-08T05:10:54.282Z,43.23
2018-06-08T05:13:22.478Z,42.33
2018-06-08T05:15:50.650Z,40.47
2018-06-08T05:18:18.854Z,38.00
2018-06-08T05:20:46.984Z,41.57
2018-06-08T05:23:15.132Z,43.20
2018-06-08T05:25:43.309Z,41.03
2018-06-08T05:28:11.482Z,40.80
2018-06-08T05:30:39.625Z,42.13
2018-06-08T05:33:07.801Z,41.77
2018-06-08T05:35:35.990Z,40.20
2018-06-08T05:38:04.642Z,42.20
2018-06-08T05:40:32.871Z,40.13
2018-06-08T05:43:01.078Z,40.80
2018-06-08T05:45:29.270Z,40.23
2018-06-08T05:47:57.434Z,39.50
2018-06-08T05:50:25.594Z,42.07
2018-06-08T05:52:53.784Z,40.87
2018-06-08T05:55:21.934Z,40.63
2018-06-08T05:57:50.098Z,39.47
2018-06-08T06:00:18.273Z,40.83
2018-06-08T06:02:46.477Z,39.33
2018-06-08T06:05:14.620Z,40.33
2018-06-08T06:07:42.752Z,40.57
2018-06-08T06:10:10.885Z,41.07
2018-06-08T06:12:39.015Z,40.97
2018-06-08T06:15:07.162Z,37.93
2018-06-08T06:17:35.328Z,38.80
2018-06-08T06:20:03.486Z,38.03
2018-06-08T06:22:31.652Z,39.37
2018-06-08T06:24:59.807Z,38.97
2018-06-08T06:27:27.970Z,38.47
2018-06-08T06:29:57.694Z,38.87
2018-06-08T06:32:25.835Z,38.07
2018-06-08T06:34:54.055Z,36.43
2018-06-08T06:37:22.137Z,37.67
2018-06-08T06:39:50.349Z,36.77
2018-06-08T06:42:18.498Z,37.97
2018-06-08T06:44:48.625Z,36.97
2018-06-08T06:47:16.753Z,36.03
2018-06-08T06:49:44.915Z,37.47
2018-06-08T06:52:13.142Z,36.67
2018-06-08T06:54:41.289Z,37.37
2018-06-08T06:57:09.502Z,36.73
2018-06-08T06:59:37.641Z,37.53
2018-06-08T07:02:05.836Z,36.37
2018-06-08T07:04:33.983Z,40.10
2018-06-08T07:07:02.096Z,36.23
2018-06-08T07:09:30.286Z,37.30
2018-06-08T07:11:58.409Z,38.13
2018-06-08T07:14:26.599Z,38.80
2018-06-08T07:16:54.763Z,37.23
2018-06-08T07:19:22.908Z,36.47
2018-06-08T07:21:51.043Z,37.47
2018-06-08T07:24:19.190Z,37.27
2018-06-08T07:26:47.313Z,35.60
2018-06-08T07:29:15.458Z,36.00
2018-06-08T07:31:43.743Z,35.77
2018-06-08T07:34:11.796Z,37.27
2018-06-08T07:36:39.939Z,36.17
2018-06-08T07:39:08.139Z,38.00
2018-06-08T07:41:36.259Z,37.70
2018-06-08T07:44:04.431Z,37.30
2018-06-08T07:46:32.623Z,37.97
2018-06-08T07:49:00.798Z,38.07
2018-06-08T07:51:28.957Z,37.10
2018-06-08T07:53:57.103Z,36.13
2018-06-08T07:56:25.241Z,36.23
2018-06-08T07:58:53.418Z,36.23
2018-06-08T08:01:21.620Z,35.17
2018-06-08T08:03:49.743Z,38.30
2018-06-08T08:06:17.924Z,36.63
2018-06-08T08:08:46.061Z,38.13
2018-06-08T08:11:14.182Z,36.43
2018-06-08T08:13:42.337Z,36.80
2018-06-08T08:16:10.479Z,35.77
2018-06-08T08:18:38.658Z,37.60
2018-06-08T08:21:06.786Z,36.73
2018-06-08T08:23:34.955Z,36.97
2018-06-08T08:26:03.122Z,38.70
2018-06-08T08:28:31.291Z,36.87
2018-06-08T08:30:59.461Z,37.70
2018-06-08T08:33:27.587Z,40.13
2018-06-08T08:35:55.753Z,38.13
2018-06-08T08:38:23.882Z,42.03
2018-06-08T08:40:52.034Z,40.47
2018-06-08T08:43:20.190Z,41.57
2018-06-08T08:45:48.426Z,41.70
2018-06-08T08:48:16.502Z,41.50
2018-06-08T08:50:44.636Z,40.63
2018-06-08T08:53:12.776Z,42.13
2018-06-08T08:55:40.925Z,42.87
2018-06-08T08:58:09.061Z,42.33
2018-06-08T09:00:37.186Z,41.47
2018-06-08T09:03:05.325Z,45.13
2018-06-08T09:05:33.492Z,42.13
2018-06-08T09:08:01.623Z,40.83
2018-06-08T09:10:29.807Z,43.67
2018-06-08T09:12:57.925Z,41.00
2018-06-08T09:15:26.073Z,41.23
2018-06-08T09:17:54.249Z,41.07
2018-06-08T09:20:22.414Z,41.10
2018-06-08T09:22:50.574Z,42.53
2018-06-08T09:25:18.743Z,41.80
2018-06-08T09:27:46.881Z,43.73
2018-06-08T09:30:15.029Z,45.07
2018-06-08T09:32:43.175Z,46.30
2018-06-08T09:35:11.305Z,45.57
2018-06-08T09:37:39.470Z,45.70
2018-06-08T09:40:07.642Z,45.60
2018-06-08T09:42:35.787Z,44.07
2018-06-08T09:45:03.938Z,44.23
2018-06-08T09:47:32.085Z,42.33
2018-06-08T09:50:00.225Z,44.83
2018-06-08T09:52:28.345Z,42.60
2018-06-08T09:54:57.302Z,43.07
2018-06-08T09:57:25.444Z,41.63
2018-06-08T09:59:53.582Z,44.13
2018-06-08T10:02:21.744Z,44.87
2018-06-08T10:04:49.890Z,44.97
2018-06-08T10:07:18.038Z,44.33
2018-06-08T10:09:46.196Z,44.83
2018-06-08T10:12:14.397Z,46.10
2018-06-08T10:14:42.522Z,46.63
2018-06-08T10:17:10.665Z,43.73
2018-06-08T10:19:38.806Z,45.63
2018-06-08T10:22:06.986Z,44.30
2018-06-08T10:24:35.146Z,45.47
2018-06-08T10:27:03.305Z,45.63
2018-06-08T10:29:31.475Z,47.20
2018-06-08T10:31:59.632Z,45.77
2018-06-08T10:34:27.793Z,46.67
2018-06-08T10:36:55.965Z,48.30
2018-06-08T10:39:24.106Z,44.43
2018-06-08T10:41:52.258Z,48.50
2018-06-08T10:44:20.394Z,48.53
2018-06-08T10:46:48.550Z,48.33
2018-06-08T10:49:16.698Z,47.83
2018-06-08T10:51:44.857Z,47.80
2018-06-08T10:54:12.996Z,52.23
2018-06-08T10:56:41.510Z,50.23
2018-06-08T10:59:09.642Z,48.20
2018-06-08T11:01:37.774Z,52.23
2018-06-08T11:04:05.925Z,51.97
2018-06-08T11:06:34.083Z,54.33
2018-06-08T11:09:02.229Z,52.40
2018-06-08T11:11:30.366Z,54.93
2018-06-08T11:13:58.502Z,54.63
2018-06-08T11:16:26.648Z,55.90
2018-06-08T11:18:54.798Z,57.13
2018-06-08T11:21:22.938Z,56.10
2018-06-08T11:23:51.098Z,58.53
2018-06-08T11:26:19.241Z,58.77
2018-06-08T11:28:47.402Z,57.93
2018-06-08T11:31:15.537Z,57.67
2018-06-08T11:33:43.686Z,59.50
2018-06-08T11:36:11.847Z,60.17
2018-06-08T11:38:40.023Z,63.70
2018-06-08T11:41:08.170Z,63.13
2018-06-08T11:43:36.305Z,61.07
2018-06-08T11:46:05.371Z,65.17
2018-06-08T11:48:33.521Z,67.13
2018-06-08T11:51:01.669Z,70.67
2018-06-08T11:53:29.811Z,71.03
2018-06-08T11:55:57.938Z,67.30
2018-06-08T11:58:26.085Z,67.97
2018-06-08T12:00:54.215Z,69.93
2018-06-08T12:03:23.186Z,70.47
2018-06-08T12:05:51.330Z,65.07
2018-06-08T12:08:19.466Z,63.33
2018-06-08T12:10:47.636Z,67.87
2018-06-08T12:13:15.774Z,62.23
2018-06-08T12:15:43.928Z,63.77
2018-06-08T12:18:12.089Z,61.27
2018-06-08T12:20:40.241Z,61.00
2018-06-08T12:23:08.370Z,57.43
2018-06-08T12:25:36.527Z,56.83
2018-06-08T12:28:04.668Z,54.40
2018-06-08T12:30:32.811Z,54.20
2018-06-08T12:33:00.954Z,55.77
2018-06-08T12:35:29.107Z,55.50
2018-06-08T12:37:57.270Z,54.10
2018-06-08T12:40:25.446Z,52.37
2018-06-08T12:42:53.582Z,53.17
2018-06-08T12:45:21.726Z,53.43
2018-06-08T12:47:49.860Z,51.93
2018-06-08T12:50:18.003Z,53.23
2018-06-08T12:52:46.143Z,52.77
2018-06-08T12:55:14.274Z,53.70
2018-06-08T12:57:42.441Z,54.17
2018-06-08T13:00:10.613Z,51.70
2018-06-08T13:02:38.741Z,52.93
2018-06-08T13:05:06.894Z,55.13
2018-06-08T13:07:35.023Z,52.27
2018-06-08T13:10:03.166Z,54.57
2018-06-08T13:12:31.303Z,53.10
2018-06-08T13:14:59.458Z,53.50
2018-06-08T13:17:27.821Z,54.20
2018-06-08T13:19:56.014Z,53.90
2018-06-08T13:22:24.203Z,50.97
2018-06-08T13:24:52.342Z,51.73
2018-06-08T13:27:20.521Z,48.60
2018-06-08T13:29:48.667Z,47.00
2018-06-08T13:32:16.815Z,44.20
2018-06-08T13:34:44.969Z,44.93
2018-06-08T13:37:13.115Z,44.47
2018-06-08T13:39:41.286Z,42.37
2018-06-08T13:42:09.431Z,41.73
2018-06-08T13:44:37.569Z,44.07
2018-06-08T13:47:05.706Z,42.33
2018-06-08T13:49:33.856Z,40.57
2018-06-08T13:52:01.982Z,41.27
2018-06-08T13:54:30.166Z,41.80
2018-06-08T13:56:58.309Z,42.90
2018-06-08T13:59:26.469Z,42.40
2018-06-08T14:01:55.666Z,41.10
2018-06-08T14:04:23.818Z,42.80
2018-06-08T14:06:52.784Z,41.80
2018-06-08T14:09:20.938Z,41.90
2018-06-08T14:11:49.177Z,40.77
2018-06-08T14:14:17.304Z,41.40
2018-06-08T14:16:45.443Z,42.10
2018-06-08T14:19:13.605Z,39.40
2018-06-08T14:21:41.737Z,40.63
2018-06-08T14:24:09.885Z,39.83
2018-06-08T14:26:38.022Z,39.60
2018-06-08T14:29:06.173Z,36.73
2018-06-08T14:31:34.302Z,38.00
2018-06-08T14:34:02.419Z,35.37
2018-06-08T14:36:30.558Z,37.23
2018-06-08T14:38:58.749Z,38.90
2018-06-08T14:41:26.896Z,37.07
2018-06-08T14:43:55.037Z,37.53
2018-06-08T14:46:23.165Z,35.97
2018-06-08T14:48:51.285Z,37.10
2018-06-08T14:51:19.421Z,38.37
2018-06-08T14:53:47.537Z,34.07
2018-06-08T14:56:16.248Z,33.33
2018-06-08T14:58:44.376Z,34.67
2018-06-08T15:01:12.501Z,33.30
2018-06-08T15:03:40.634Z,35.27
2018-06-08T15:06:08.755Z,35.07
2018-06-08T15:08:36.910Z,33.53
2018-06-08T15:11:05.055Z,33.77
2018-06-08T15:13:33.181Z,31.43
2018-06-08T15:16:01.318Z,32.53
2018-06-08T15:18:29.467Z,33.20
2018-06-08T15:20:57.601Z,32.63
2018-06-08T15:23:25.731Z,32.53
2018-06-08T15:25:53.881Z,32.33
2018-06-08T15:28:22.046Z,31.83
2018-06-08T15:30:50.217Z,33.10
2018-06-08T15:33:18.375Z,31.77
2018-06-08T15:35:46.533Z,29.70
2018-06-08T15:38:14.656Z,29.13
2018-06-08T15:40:42.846Z,31.63
2018-06-08T15:43:10.950Z,32.00
2018-06-08T15:45:39.073Z,31.13
2018-06-08T15:48:07.200Z,30.37
2018-06-08T15:50:35.347Z,32.43
2018-06-08T15:53:03.470Z,31.10
2018-06-08T15:55:31.622Z,32.03
2018-06-08T15:57:59.773Z,31.57
2018-06-08T16:00:27.958Z,30.63
2018-06-08T16:02:56.168Z,30.30
2018-06-08T16:05:24.321Z,29.77
2018-06-08T16:07:52.479Z,29.67
2018-06-08T16:10:20.630Z,29.17
2018-06-08T16:12:48.745Z,29.13
2018-06-08T16:15:16.884Z,29.27
2018-06-08T16:17:45.014Z,29.17
2018-06-08T16:20:13.157Z,28.83
2018-06-08T16:22:41.342Z,30.17
2018-06-08T16:25:09.477Z,28.00
2018-06-08T16:27:37.625Z,29.27
2018-06-08T16:30:05.830Z,29.13
2018-06-08T16:32:33.970Z,29.47
2018-06-08T16:35:02.100Z,27.97
2018-06-08T16:37:30.275Z,29.30
2018-06-08T16:39:58.407Z,28.70
2018-06-08T16:42:26.537Z,29.13
2018-06-08T16:44:54.669Z,28.47
2018-06-08T16:47:22.809Z,28.37
2018-06-08T16:49:50.934Z,28.93
2018-06-08T16:52:19.053Z,28.13
2018-06-08T16:54:47.678Z,27.13
2018-06-08T16:57:15.824Z,27.70
2018-06-08T16:59:43.968Z,28.37
2018-06-08T17:02:12.098Z,30.77
2018-06-08T17:04:40.281Z,27.97
2018-06-08T17:07:08.433Z,27.77
2018-06-08T17:09:36.605Z,27.73
2018-06-08T17:12:04.782Z,28.10
2018-06-08T17:14:32.953Z,28.33
2018-06-08T17:17:01.110Z,27.30
2018-06-08T17:19:29.261Z,26.53
2018-06-08T17:21:57.393Z,27.50
2018-06-08T17:24:25.571Z,26.67
2018-06-08T17:26:53.703Z,26.87
2018-06-08T17:29:21.843Z,25.63
2018-06-08T17:31:49.982Z,27.53
2018-06-08T17:34:18.113Z,26.07
2018-06-08T17:36:46.295Z,26.30
2018-06-08T17:39:14.442Z,26.47
2018-06-08T17:41:42.586Z,26.87
2018-06-08T17:44:10.724Z,26.30
2018-06-08T17:46:38.845Z,26.63
2018-06-08T17:49:07.003Z,27.63
2018-06-08T17:51:35.135Z,26.53
2018-06-08T17:54:03.259Z,25.87
2018-06-08T17:56:31.382Z,27.80
2018-06-08T17:58:59.530Z,29.23
2018-06-08T18:01:27.675Z,27.60
2018-06-08T18:03:55.805Z,28.67
2018-06-08T18:06:28.535Z,26.47
2018-06-08T18:08:56.802Z,29.37
2018-06-08T18:11:24.982Z,28.50
2018-06-08T18:13:53.107Z,30.57
2018-06-08T18:16:21.273Z,29.77
2018-06-08T18:18:49.397Z,30.67
2018-06-08T18:21:17.545Z,30.17
2018-06-08T18:23:45.697Z,30.43
2018-06-08T18:26:13.833Z,32.97
2018-06-08T18:28:41.974Z,31.00
2018-06-08T18:31:10.447Z,32.50
2018-06-08T18:33:38.577Z,31.10
2018-06-08T18:36:06.713Z,34.23
2018-06-08T18:38:34.908Z,34.37
2018-06-08T18:41:03.046Z,35.93
2018-06-08T18:43:31.179Z,36.10
2018-06-08T18:45:59.311Z,36.20
2018-06-08T18:48:27.473Z,36.77
2018-06-08T18:50:55.609Z,35.93
2018-06-08T18:53:23.738Z,39.40
2018-06-08T18:55:51.870Z,40.20
2018-06-08T18:58:20.030Z,41.23
2018-06-08T19:00:48.181Z,41.80
2018-06-08T19:03:16.321Z,42.83
2018-06-08T19:05:44.467Z,43.43
2018-06-08T19:08:12.614Z,43.37
2018-06-08T19:10:40.749Z,44.03
2018-06-08T19:13:08.919Z,44.47
2018-06-08T19:15:37.041Z,42.63
2018-06-08T19:18:05.203Z,44.63
2018-06-08T19:20:33.334Z,46.17
2018-06-08T19:23:01.460Z,48.13
2018-06-08T19:25:29.592Z,47.37
2018-06-08T19:27:57.736Z,48.53
2018-06-08T19:30:25.865Z,49.87
2018-06-08T19:32:54.006Z,50.40
2018-06-08T19:35:22.150Z,51.03
2018-06-08T19:37:50.336Z,48.80
2018-06-08T19:40:18.509Z,47.93
2018-06-08T19:42:46.641Z,49.73
2018-06-08T19:45:14.788Z,51.03
2018-06-08T19:47:42.935Z,49.60
2018-06-08T19:50:11.071Z,51.60
2018-06-08T19:52:39.245Z,49.43
2018-06-08T19:55:07.367Z,50.40
2018-06-08T19:57:35.493Z,50.20
2018-06-08T20:00:03.665Z,55.93
2018-06-08T20:02:31.793Z,54.00
2018-06-08T20:04:59.922Z,56.00
2018-06-08T20:07:28.049Z,55.30
2018-06-08T20:09:56.183Z,56.07
2018-06-08T20:12:24.297Z,57.63
2018-06-08T20:14:53.494Z,58.57
2018-06-08T20:17:21.610Z,57.17
2018-06-08T20:19:49.736Z,57.47
2018-06-08T20:22:17.853Z,61.20
2018-06-08T20:24:46.006Z,62.27
2018-06-08T20:27:14.137Z,63.17
2018-06-08T20:29:42.269Z,65.80
2018-06-08T20:32:10.382Z,69.93
2018-06-08T20:34:38.518Z,70.57
2018-06-08T20:37:06.677Z,72.27
2018-06-08T20:39:34.841Z,69.87
2018-06-08T20:42:03.038Z,70.90
2018-06-08T20:44:31.158Z,72.37
2018-06-08T20:46:59.274Z,67.33
2018-06-08T20:49:27.405Z,66.87
2018-06-08T20:51:55.604Z,66.33
2018-06-08T20:54:23.725Z,58.10
2018-06-08T20:56:57.225Z,59.13
2018-06-08T20:59:25.353Z,58.73
2018-06-08T21:01:53.474Z,60.90
2018-06-08T21:04:21.593Z,56.97
2018-06-08T21:06:49.713Z,59.90
2018-06-08T21:09:17.855Z,59.40
2018-06-08T21:11:45.974Z,57.13
2018-06-08T21:14:14.090Z,61.43
2018-06-08T21:16:42.206Z,60.50
2018-06-08T21:19:10.327Z,59.87
2018-06-08T21:21:38.458Z,57.43
2018-06-08T21:24:06.577Z,59.47
2018-06-08T21:26:34.695Z,40.80
2018-06-08T21:29:02.806Z,33.47
2018-06-08T21:31:30.921Z,36.60
2018-06-08T21:33:59.073Z,28.23
2018-06-08T21:36:27.207Z,32.27
2018-06-08T21:38:55.318Z,32.87
2018-06-08T21:41:23.443Z,29.43
2018-06-08T21:43:51.582Z,30.90
2018-06-08T21:46:19.702Z,30.93
2018-06-08T21:48:47.827Z,30.67
2018-06-08T21:51:15.934Z,32.83
2018-06-08T21:53:44.057Z,33.70
2018-06-08T21:56:16.064Z,35.40
2018-06-08T21:58:44.194Z,35.07
2018-06-08T22:01:12.341Z,34.63
2018-06-08T22:03:40.465Z,35.80
2018-06-08T22:06:08.602Z,36.27
2018-06-08T22:08:36.733Z,37.60
2018-06-08T22:11:04.882Z,36.50
2018-06-08T22:13:33.034Z,37.30
2018-06-08T22:16:01.161Z,38.63
2018-06-08T22:18:29.315Z,37.63
2018-06-08T22:20:57.467Z,38.17
2018-06-08T22:23:25.606Z,39.33
2018-06-08T22:25:53.742Z,39.03
2018-06-08T22:28:21.894Z,38.60
2018-06-08T22:30:50.033Z,38.17
2018-06-08T22:33:18.169Z,40.27
2018-06-08T22:35:46.294Z,35.80
2018-06-08T22:38:14.442Z,37.27
2018-06-08T22:40:42.593Z,37.20
2018-06-08T22:43:10.921Z,35.40
2018-06-08T22:45:39.066Z,33.57
2018-06-08T22:48:07.217Z,35.13
2018-06-08T22:50:35.362Z,34.20
2018-06-08T22:53:03.504Z,35.70
2018-06-08T22:55:31.703Z,35.80
2018-06-08T22:58:00.651Z,33.73
2018-06-08T23:00:28.802Z,33.63
2018-06-08T23:02:56.951Z,35.83
2018-06-08T23:05:25.094Z,35.23
2018-06-08T23:07:53.214Z,32.73
2018-06-08T23:10:21.346Z,32.83
2018-06-08T23:12:49.474Z,33.90
2018-06-08T23:15:17.606Z,33.30
2018-06-08T23:17:45.758Z,29.00
2018-06-08T23:20:13.879Z,30.40
2018-06-08T23:22:42.009Z,27.47
2018-06-08T23:25:10.147Z,27.60
2018-06-08T23:27:38.301Z,27.97
2018-06-08T23:30:06.456Z,26.23
2018-06-08T23:32:34.592Z,27.13
2018-06-08T23:35:02.734Z,26.23
2018-06-08T23:37:30.866Z,23.57
2018-06-08T23:40:01.406Z,21.03
2018-06-08T23:42:29.946Z,21.60
2018-06-08T23:44:58.868Z,19.97
2018-06-08T23:47:29.812Z,20.27
2018-06-08T23:52:36.133Z,19.77
2018-06-08T23:55:04.278Z,20.53
2018-06-08T23:57:33.734Z,20.50
